^^
Station Historical Data
Daily Summary for December 2, 2017 Units:  English    Metric   Both
« Previous Day
Next Day »
Daily Weekly Monthly Yearly Custom
  High: Low: Average:
Temperature: 47.1 °F 26.0 °F 35.5 °F
Dew Point: 34.1 °F 23.7 °F 29.3 °F
Humidity: 91 % 58 % 79 %
Wind Speed: 1.9 mph 0.0 mph 0 mph
Wind Gust: 3.5 mph - -
Wind:- - NW
Pressure: 30.33 in 30.23 in -
Precipitation: 0.01 in    
Historical Graphs
 
 
Tabular Data for December 2, 2017
Time Temperature Dew Point Pressure Wind Wind Speed Wind Gust Humidity Rainfall Rate (Hourly) solar Conditions
00:03 29.7 °F 26.6 °F 30.30 in Calm     88 % 0.00 in 0.0 W/m2 CLR
00:08 29.6 °F 26.8 °F 30.30 in Calm     89 % 0.00 in 0.0 W/m2 CLR
00:18 29.3 °F 26.5 °F 30.31 in Calm     89 % 0.00 in 0.0 W/m2 CLR
00:23 29.3 °F 26.5 °F 30.31 in Calm     89 % 0.00 in 0.0 W/m2 CLR
00:28 28.8 °F 25.7 °F 30.31 in Calm     88 % 0.00 in 0.0 W/m2 CLR
00:33 28.8 °F 26.0 °F 30.31 in Calm     89 % 0.00 in 0.0 W/m2 CLR
00:38 28.8 °F 26.0 °F 30.30 in Calm     89 % 0.00 in 0.0 W/m2 CLR
00:43 28.8 °F 26.0 °F 30.30 in Calm     89 % 0.00 in 0.0 W/m2 CLR
00:48 28.9 °F 26.1 °F 30.30 in Calm     89 % 0.00 in 0.0 W/m2 CLR
00:53 28.8 °F 26.0 °F 30.30 in Calm     89 % 0.00 in 0.0 W/m2 CLR
01:03 28.6 °F 25.8 °F 30.30 in Calm     89 % 0.00 in 0.0 W/m2 CLR
01:08 28.7 °F 25.9 °F 30.30 in Calm     89 % 0.00 in 0.0 W/m2 CLR
01:13 28.5 °F 25.7 °F 30.30 in Calm     89 % 0.00 in 0.0 W/m2 CLR
01:18 28.6 °F 25.8 °F 30.30 in Calm     89 % 0.00 in 0.0 W/m2 CLR
01:23 28.4 °F 25.6 °F 30.30 in Calm     89 % 0.00 in 0.0 W/m2 CLR
01:29 28.3 °F 25.5 °F 30.30 in Calm     89 % 0.00 in 0.0 W/m2 CLR
01:49 27.9 °F 25.1 °F 30.32 in Calm     89 % 0.00 in 0.0 W/m2 CLR
01:59 27.9 °F 25.1 °F 30.32 in Calm     89 % 0.00 in 0.0 W/m2 CLR
02:04 28.0 °F 25.4 °F 30.32 in Calm     90 % 0.00 in 0.0 W/m2 CLR
02:14 27.9 °F 25.3 °F 30.32 in Calm     90 % 0.00 in 0.0 W/m2 CLR
02:19 27.7 °F 25.2 °F 30.32 in Calm     90 % 0.00 in 0.0 W/m2 CLR
02:24 27.6 °F 25.1 °F 30.32 in Calm     90 % 0.00 in 0.0 W/m2 CLR
02:29 27.7 °F 25.2 °F 30.33 in Calm     90 % 0.00 in 0.0 W/m2 CLR
02:34 27.4 °F 24.9 °F 30.33 in Calm     90 % 0.00 in 0.0 W/m2 CLR
02:44 27.4 °F 24.9 °F 30.32 in Calm     90 % 0.00 in 0.0 W/m2 CLR
02:49 27.4 °F 24.9 °F 30.33 in Calm     90 % 0.00 in 0.0 W/m2 CLR
02:54 27.3 °F 24.8 °F 30.33 in Calm     90 % 0.00 in 0.0 W/m2 CLR
02:59 27.2 °F 24.7 °F 30.33 in Calm     90 % 0.00 in 0.0 W/m2 CLR
03:04 27.2 °F 24.7 °F 30.33 in Calm     90 % 0.00 in 0.0 W/m2 CLR
03:09 27.0 °F 24.5 °F 30.33 in Calm     90 % 0.00 in 0.0 W/m2 CLR
03:24 26.7 °F 24.2 °F 30.32 in Calm     90 % 0.00 in 0.0 W/m2 CLR
03:34 26.7 °F 24.2 °F 30.32 in Calm     90 % 0.00 in 0.0 W/m2 CLR
03:39 26.5 °F 24.0 °F 30.32 in Calm     90 % 0.00 in 0.0 W/m2 CLR
03:44 26.6 °F 24.1 °F 30.32 in Calm     90 % 0.00 in 0.0 W/m2 CLR
03:49 26.4 °F 23.9 °F 30.32 in Calm     90 % 0.00 in 0.0 W/m2 CLR
03:54 26.5 °F 24.0 °F 30.32 in Calm     90 % 0.00 in 0.0 W/m2 CLR
04:04 26.6 °F 24.3 °F 30.31 in Calm     91 % 0.00 in 0.0 W/m2 CLR
04:09 26.7 °F 24.4 °F 30.31 in Calm     91 % 0.00 in 0.0 W/m2 CLR
04:14 26.7 °F 24.4 °F 30.31 in Calm     91 % 0.00 in 0.0 W/m2 CLR
04:29 26.7 °F 24.4 °F 30.31 in Calm     91 % 0.00 in 0.0 W/m2 CLR
04:34 26.7 °F 24.4 °F 30.31 in Calm     91 % 0.00 in 0.0 W/m2 CLR
04:39 26.7 °F 24.4 °F 30.31 in Calm     91 % 0.00 in 0.0 W/m2 CLR
04:49 26.6 °F 24.3 °F 30.31 in Calm     91 % 0.00 in 0.0 W/m2 CLR
04:54 26.8 °F 24.5 °F 30.31 in Calm     91 % 0.00 in 0.0 W/m2 CLR
04:59 26.9 °F 24.6 °F 30.31 in Calm     91 % 0.00 in 0.0 W/m2 CLR
05:04 27.0 °F 24.7 °F 30.31 in Calm     91 % 0.00 in 0.0 W/m2 CLR
05:29 27.3 °F 25.0 °F 30.31 in Calm     91 % 0.00 in 0.0 W/m2 CLR
05:34 27.1 °F 24.8 °F 30.31 in Calm     91 % 0.00 in 0.0 W/m2 CLR
05:39 27.2 °F 24.9 °F 30.31 in Calm     91 % 0.00 in 0.0 W/m2 CLR
05:49 27.5 °F 25.2 °F 30.32 in Calm     91 % 0.00 in 0.0 W/m2 CLR
05:59 27.5 °F 25.2 °F 30.32 in Calm     91 % 0.00 in 0.0 W/m2 CLR
06:04 27.5 °F 25.2 °F 30.32 in Calm     91 % 0.00 in 0.0 W/m2 CLR
06:09 27.3 °F 25.0 °F 30.32 in Calm     91 % 0.00 in 0.0 W/m2 CLR
06:24 26.6 °F 24.3 °F 30.33 in Calm     91 % 0.00 in 0.0 W/m2 CLR
06:29 26.5 °F 24.2 °F 30.33 in Calm     91 % 0.00 in 0.0 W/m2 CLR
06:40 26.4 °F 24.1 °F 30.33 in Calm     91 % 0.00 in 0.0 W/m2 CLR
06:45 26.3 °F 24.0 °F 30.33 in Calm     91 % 0.00 in 0.0 W/m2 CLR
06:50 26.3 °F 24.0 °F 30.33 in Calm     91 % 0.00 in 0.0 W/m2 CLR
06:55 26.3 °F 24.0 °F 30.33 in Calm     91 % 0.00 in 0.0 W/m2 CLR
07:00 26.1 °F 23.8 °F 30.32 in Calm     91 % 0.00 in 0.0 W/m2 CLR
07:10 26.0 °F 23.7 °F 30.32 in Calm     91 % 0.00 in 5.0 W/m2 CLR
07:20 26.1 °F 23.8 °F 30.32 in Calm     91 % 0.00 in 9.0 W/m2 CLR
07:30 26.0 °F 23.7 °F 30.32 in Calm     91 % 0.00 in 12.0 W/m2 CLR
07:35 26.1 °F 23.8 °F 30.32 in Calm     91 % 0.00 in 14.0 W/m2 CLR
07:40 26.4 °F 24.1 °F 30.33 in Calm     91 % 0.00 in 16.0 W/m2 CLR
07:45 26.7 °F 24.4 °F 30.33 in Calm     91 % 0.00 in 21.0 W/m2 CLR
07:50 27.1 °F 24.8 °F 30.33 in Calm     91 % 0.00 in 21.0 W/m2 CLR
07:55 27.3 °F 25.0 °F 30.33 in Calm     91 % 0.00 in 25.0 W/m2 CLR
08:00 27.7 °F 25.4 °F 30.33 in Calm     91 % 0.00 in 26.0 W/m2 CLR
08:10 28.5 °F 26.2 °F 30.33 in Calm     91 % 0.00 in 28.0 W/m2 CLR
08:15 28.6 °F 26.3 °F 30.33 in Calm     91 % 0.00 in 26.0 W/m2 CLR
08:20 29.0 °F 26.7 °F 30.33 in Calm     91 % 0.00 in 30.0 W/m2 CLR
08:25 29.3 °F 27.0 °F 30.33 in Calm     91 % 0.00 in 30.0 W/m2 CLR
08:30 29.7 °F 27.1 °F 30.33 in Calm     90 % 0.00 in 60.0 W/m2 CLR
08:40 30.4 °F 27.5 °F 30.33 in Calm     89 % 0.00 in 169.0 W/m2 CLR
08:45 30.6 °F 27.7 °F 30.33 in Calm     89 % 0.00 in 134.0 W/m2 CLR
08:55 31.4 °F 28.3 °F 30.33 in Calm     88 % 0.00 in 84.0 W/m2 CLR
09:05 31.7 °F 28.6 °F 30.33 in Calm     88 % 0.00 in 137.0 W/m2 CLR
09:15 32.6 °F 29.2 °F 30.33 in Calm     87 % 0.01 in 93.0 W/m2 RA
09:20 32.8 °F 29.1 °F 30.33 in Calm     86 % 0.01 in 135.0 W/m2 RA
09:25 33.4 °F 29.7 °F 30.32 in Calm     86 % 0.01 in 262.0 W/m2 CLR
09:30 34.1 °F 30.1 °F 30.32 in Calm     85 % 0.01 in 292.0 W/m2 CLR
09:36 34.4 °F 30.4 °F 30.33 in Calm     85 % 0.01 in 186.0 W/m2 CLR
09:41 34.7 °F 30.4 °F 30.33 in NW 0.4 mph 2.3 mph 84 % 0.01 in 204.0 W/m2 CLR
10:01 36.8 °F 31.5 °F 30.33 in Calm     81 % 0.01 in 192.0 W/m2 CLR
10:06 37.3 °F 31.7 °F 30.33 in Calm     80 % 0.01 in 135.0 W/m2 CLR
10:11 37.8 °F 31.9 °F 30.33 in Calm     79 % 0.01 in 76.0 W/m2 CLR
10:26 38.5 °F 31.9 °F 30.33 in Calm     77 % 0.00 in 397.0 W/m2 CLR
10:31 38.8 °F 32.2 °F 30.32 in Calm     77 % 0.00 in 221.0 W/m2 CLR
10:36 39.2 °F 32.3 °F 30.32 in Calm     76 % 0.00 in 346.0 W/m2 CLR
10:41 39.5 °F 32.2 °F 30.31 in Calm     75 % 0.00 in 213.0 W/m2 CLR
10:51 39.9 °F 31.9 °F 30.31 in NW 0.1 mph 3.5 mph 73 % 0.00 in 287.0 W/m2 CLR
10:56 40.5 °F 32.5 °F 30.30 in NW 0.1 mph 3.5 mph 73 % 0.00 in 315.0 W/m2 CLR
11:06 41.3 °F 33.0 °F 30.30 in Calm   3.5 mph 72 % 0.00 in 445.0 W/m2 CLR
11:11 41.7 °F 33.0 °F 30.30 in Calm   1.2 mph 71 % 0.00 in 476.0 W/m2 CLR
11:16 41.8 °F 33.1 °F 30.29 in Calm     71 % 0.00 in 376.0 W/m2 CLR
11:21 42.1 °F 33.0 °F 30.29 in Calm   3.5 mph 70 % 0.00 in 292.0 W/m2 CLR
11:26 42.5 °F 33.4 °F 30.28 in Calm   3.5 mph 70 % 0.00 in 418.0 W/m2 CLR
11:31 42.2 °F 32.4 °F 30.28 in Calm   1.2 mph 68 % 0.00 in 413.0 W/m2 CLR
11:36 42.5 °F 33.0 °F 30.28 in Calm     69 % 0.00 in 427.0 W/m2 CLR
11:41 43.1 °F 33.6 °F 30.27 in Calm     69 % 0.00 in 411.0 W/m2 CLR
11:46 43.7 °F 33.8 °F 30.27 in Calm     68 % 0.00 in 445.0 W/m2 CLR
11:51 43.6 °F 33.4 °F 30.27 in Calm     67 % 0.00 in 504.0 W/m2 CLR
11:56 44.0 °F 33.7 °F 30.27 in Calm     67 % 0.00 in 468.0 W/m2 CLR
12:01 44.9 °F 33.8 °F 30.27 in Calm   2.3 mph 65 % 0.00 in 415.0 W/m2 CLR
12:16 44.8 °F 34.1 °F 30.26 in Calm     66 % 0.00 in 202.0 W/m2 CLR
12:21 44.4 °F 33.4 °F 30.26 in Calm     65 % 0.00 in 214.0 W/m2 CLR
12:26 44.5 °F 33.8 °F 30.25 in Calm     66 % 0.00 in 246.0 W/m2 CLR
12:31 44.8 °F 33.7 °F 30.25 in Calm     65 % 0.00 in 213.0 W/m2 CLR
12:36 44.9 °F 33.8 °F 30.25 in Calm     65 % 0.00 in 204.0 W/m2 CLR
12:46 45.2 °F 33.7 °F 30.25 in Calm     64 % 0.00 in 209.0 W/m2 CLR
12:56 45.5 °F 33.6 °F 30.24 in Calm     63 % 0.00 in 248.0 W/m2 CLR
13:01 45.6 °F 33.7 °F 30.24 in Calm     63 % 0.00 in 410.0 W/m2 CLR
13:06 45.8 °F 33.9 °F 30.24 in Calm     63 % 0.00 in 309.0 W/m2 CLR
13:11 45.9 °F 34.0 °F 30.24 in Calm     63 % 0.00 in 264.0 W/m2 CLR
13:16 46.4 °F 34.1 °F 30.23 in Calm   2.3 mph 62 % 0.00 in 281.0 W/m2 CLR
13:21 46.5 °F 33.8 °F 30.23 in Calm   2.3 mph 61 % 0.00 in 237.0 W/m2 CLR
13:26 46.8 °F 34.0 °F 30.23 in Calm   2.3 mph 61 % 0.00 in 248.0 W/m2 CLR
13:31 46.7 °F 34.0 °F 30.23 in Calm   2.3 mph 61 % 0.00 in 225.0 W/m2 CLR
13:36 47.1 °F 33.5 °F 30.23 in North 1.9 mph 2.3 mph 59 % 0.00 in 230.0 W/m2 CLR
13:41 46.6 °F 33.4 °F 30.23 in Calm   3.5 mph 60 % 0.00 in 178.0 W/m2 CLR
13:51 46.6 °F 33.4 °F 30.23 in Calm     60 % 0.00 in 142.0 W/m2 CLR
13:56 46.5 °F 33.4 °F 30.23 in Calm     60 % 0.00 in 128.0 W/m2 CLR
14:06 46.5 °F 33.4 °F 30.23 in Calm     60 % 0.00 in 104.0 W/m2 CLR
14:11 46.6 °F 33.9 °F 30.23 in Calm     61 % 0.00 in 105.0 W/m2 CLR
14:17 46.5 °F 33.8 °F 30.23 in Calm   1.2 mph 61 % 0.00 in 98.0 W/m2 CLR
14:22 46.4 °F 33.7 °F 30.23 in Calm   1.2 mph 61 % 0.00 in 88.0 W/m2 CLR
14:27 46.5 °F 33.8 °F 30.23 in Calm     61 % 0.00 in 88.0 W/m2 CLR
14:32 46.6 °F 33.9 °F 30.23 in Calm     61 % 0.00 in 88.0 W/m2 CLR
14:37 46.7 °F 33.1 °F 30.23 in Calm     59 % 0.00 in 83.0 W/m2 CLR
14:42 46.8 °F 33.2 °F 30.24 in Calm   3.5 mph 59 % 0.00 in 77.0 W/m2 CLR
14:52 46.6 °F 32.6 °F 30.24 in Calm     58 % 0.00 in 83.0 W/m2 CLR
14:57 46.6 °F 33.0 °F 30.24 in Calm     59 % 0.00 in 79.0 W/m2 CLR
15:02 46.7 °F 33.1 °F 30.24 in Calm     59 % 0.00 in 69.0 W/m2 CLR
15:07 46.7 °F 32.7 °F 30.24 in Calm     58 % 0.00 in 60.0 W/m2 CLR
15:12 46.6 °F 32.6 °F 30.24 in Calm     58 % 0.00 in 56.0 W/m2 CLR
15:17 46.6 °F 33.0 °F 30.24 in Calm     59 % 0.00 in 53.0 W/m2 CLR
15:22 46.4 °F 33.3 °F 30.24 in Calm     60 % 0.00 in 49.0 W/m2 CLR
15:27 46.2 °F 33.5 °F 30.24 in Calm     61 % 0.00 in 42.0 W/m2 CLR
15:32 46.1 °F 33.4 °F 30.24 in Calm     61 % 0.00 in 37.0 W/m2 CLR
15:37 46.0 °F 33.3 °F 30.24 in Calm     61 % 0.00 in 42.0 W/m2 CLR
15:42 46.0 °F 33.3 °F 30.24 in Calm     61 % 0.00 in 49.0 W/m2 CLR
15:47 45.9 °F 33.6 °F 30.24 in Calm     62 % 0.00 in 63.0 W/m2 CLR
15:52 46.2 °F 33.9 °F 30.24 in SW 0.1 mph   62 % 0.00 in 67.0 W/m2 CLR
15:57 46.3 °F 33.6 °F 30.24 in Calm   1.2 mph 61 % 0.00 in 62.0 W/m2 CLR
16:07 46.1 °F 33.4 °F 30.24 in Calm     61 % 0.00 in 39.0 W/m2 CLR
16:17 45.5 °F 33.2 °F 30.24 in Calm     62 % 0.00 in 21.0 W/m2 CLR
16:22 45.4 °F 33.1 °F 30.24 in Calm     62 % 0.00 in 18.0 W/m2 CLR
16:32 44.9 °F 32.7 °F 30.24 in Calm     62 % 0.00 in 5.0 W/m2 CLR
16:42 44.5 °F 32.7 °F 30.24 in Calm     63 % 0.00 in 0.0 W/m2 CLR
16:47 44.0 °F 32.2 °F 30.24 in Calm     63 % 0.00 in 0.0 W/m2 CLR
16:52 43.6 °F 32.6 °F 30.24 in Calm     65 % 0.00 in 0.0 W/m2 CLR
16:57 43.4 °F 32.4 °F 30.24 in Calm     65 % 0.00 in 0.0 W/m2 CLR
17:02 43.0 °F 32.4 °F 30.24 in Calm     66 % 0.00 in 0.0 W/m2 CLR
17:07 42.6 °F 32.4 °F 30.24 in Calm     67 % 0.00 in 0.0 W/m2 CLR
17:17 42.3 °F 32.5 °F 30.24 in Calm     68 % 0.00 in 0.0 W/m2 CLR
17:22 42.2 °F 32.4 °F 30.24 in Calm     68 % 0.00 in 0.0 W/m2 CLR
17:27 42.1 °F 32.7 °F 30.24 in Calm     69 % 0.00 in 0.0 W/m2 CLR
17:32 41.9 °F 32.5 °F 30.24 in Calm     69 % 0.00 in 0.0 W/m2 CLR
17:37 41.7 °F 32.6 °F 30.24 in Calm     70 % 0.00 in 0.0 W/m2 CLR
17:57 41.6 °F 32.5 °F 30.23 in Calm     70 % 0.00 in 0.0 W/m2 CLR
18:02 41.0 °F 32.0 °F 30.23 in Calm     70 % 0.00 in 0.0 W/m2 CLR
18:07 40.5 °F 31.8 °F 30.23 in Calm     71 % 0.00 in 0.0 W/m2 CLR
18:12 40.1 °F 31.8 °F 30.23 in Calm     72 % 0.00 in 0.0 W/m2 CLR
18:17 39.7 °F 31.4 °F 30.23 in Calm     72 % 0.00 in 0.0 W/m2 CLR
18:22 39.3 °F 31.4 °F 30.23 in Calm     73 % 0.00 in 0.0 W/m2 CLR
18:37 38.3 °F 31.1 °F 30.23 in Calm     75 % 0.00 in 0.0 W/m2 CLR
18:42 38.0 °F 31.1 °F 30.24 in Calm     76 % 0.00 in 0.0 W/m2 CLR
18:47 37.8 °F 31.2 °F 30.23 in Calm     77 % 0.00 in 0.0 W/m2 CLR
18:52 37.5 °F 31.3 °F 30.23 in Calm     78 % 0.00 in 0.0 W/m2 CLR
18:57 37.4 °F 31.2 °F 30.23 in Calm     78 % 0.00 in 0.0 W/m2 CLR
19:03 37.4 °F 31.5 °F 30.23 in Calm     79 % 0.00 in 0.0 W/m2 CLR
19:08 37.2 °F 31.3 °F 30.23 in Calm     79 % 0.00 in 0.0 W/m2 CLR
19:23 36.3 °F 30.7 °F 30.23 in Calm     80 % 0.00 in 0.0 W/m2 CLR
19:28 36.1 °F 30.5 °F 30.23 in Calm     80 % 0.00 in 0.0 W/m2 CLR
19:38 35.3 °F 30.1 °F 30.24 in Calm     81 % 0.00 in 0.0 W/m2 CLR
19:43 35.2 °F 30.3 °F 30.24 in Calm     82 % 0.00 in 0.0 W/m2 CLR
20:03 35.8 °F 31.1 °F 30.24 in Calm     83 % 0.00 in 0.0 W/m2 CLR
20:08 35.9 °F 31.2 °F 30.24 in Calm     83 % 0.00 in 0.0 W/m2 CLR
20:13 35.8 °F 30.8 °F 30.24 in Calm     82 % 0.00 in 0.0 W/m2 CLR
20:23 35.5 °F 30.5 °F 30.24 in Calm     82 % 0.00 in 0.0 W/m2 CLR
20:28 35.3 °F 30.4 °F 30.24 in Calm     82 % 0.00 in 0.0 W/m2 CLR
20:38 35.0 °F 30.4 °F 30.24 in Calm     83 % 0.00 in 0.0 W/m2 CLR
20:43 34.9 °F 30.3 °F 30.24 in Calm     83 % 0.00 in 0.0 W/m2 CLR
20:53 34.7 °F 30.1 °F 30.24 in Calm     83 % 0.00 in 0.0 W/m2 CLR
20:58 34.6 °F 30.3 °F 30.24 in Calm     84 % 0.00 in 0.0 W/m2 CLR
21:03 34.5 °F 30.2 °F 30.24 in Calm     84 % 0.00 in 0.0 W/m2 CLR
21:08 34.4 °F 30.1 °F 30.24 in Calm     84 % 0.00 in 0.0 W/m2 CLR
21:13 34.3 °F 30.3 °F 30.24 in Calm     85 % 0.00 in 0.0 W/m2 CLR
21:18 34.2 °F 30.2 °F 30.24 in Calm     85 % 0.00 in 0.0 W/m2 CLR
21:23 34.1 °F 30.1 °F 30.24 in Calm     85 % 0.00 in 0.0 W/m2 CLR
21:33 33.6 °F 29.6 °F 30.24 in Calm     85 % 0.00 in 0.0 W/m2 CLR
21:43 33.1 °F 29.1 °F 30.24 in Calm     85 % 0.00 in 0.0 W/m2 CLR
21:48 32.9 °F 29.2 °F 30.24 in Calm     86 % 0.00 in 0.0 W/m2 CLR
21:53 32.7 °F 29.0 °F 30.24 in Calm     86 % 0.00 in 0.0 W/m2 CLR
22:03 32.3 °F 28.6 °F 30.23 in Calm     86 % 0.00 in 0.0 W/m2 CLR
22:08 32.2 °F 28.8 °F 30.23 in Calm     87 % 0.00 in 0.0 W/m2 CLR
22:13 32.1 °F 28.7 °F 30.23 in Calm     87 % 0.00 in 0.0 W/m2 CLR
22:18 31.9 °F 28.5 °F 30.23 in Calm     87 % 0.00 in 0.0 W/m2 CLR
22:23 31.9 °F 28.5 °F 30.24 in Calm     87 % 0.00 in 0.0 W/m2 CLR
22:38 31.5 °F 28.1 °F 30.24 in Calm     87 % 0.00 in 0.0 W/m2 CLR
22:43 31.6 °F 28.5 °F 30.24 in Calm     88 % 0.00 in 0.0 W/m2 CLR
22:48 31.5 °F 28.4 °F 30.24 in Calm     88 % 0.00 in 0.0 W/m2 CLR
22:53 31.4 °F 28.3 °F 30.25 in Calm     88 % 0.00 in 0.0 W/m2 CLR
22:58 31.4 °F 28.3 °F 30.25 in Calm     88 % 0.00 in 0.0 W/m2 CLR
23:08 31.3 °F 28.2 °F 30.25 in Calm     88 % 0.00 in 0.0 W/m2 CLR
23:13 31.2 °F 28.1 °F 30.25 in Calm     88 % 0.00 in 0.0 W/m2 CLR
23:18 31.2 °F 28.3 °F 30.25 in Calm     89 % 0.00 in 0.0 W/m2 CLR
23:28 30.9 °F 28.0 °F 30.25 in Calm     89 % 0.00 in 0.0 W/m2 CLR
23:33 31.0 °F 28.1 °F 30.24 in Calm     89 % 0.00 in 0.0 W/m2 CLR
23:38 31.1 °F 28.2 °F 30.24 in Calm     89 % 0.00 in 0.0 W/m2 CLR
23:43 30.9 °F 28.0 °F 30.24 in Calm     89 % 0.00 in 0.0 W/m2 CLR
23:48 30.6 °F 27.7 °F 30.24 in Calm     89 % 0.00 in 0.0 W/m2 CLR
23:53 30.5 °F 27.6 °F 30.24 in Calm     89 % 0.00 in 0.0 W/m2 CLR
Air Products Campus Weather
Compliments of Weather Underground - 3 mb